Grant, New York
Current Conditions -  °F | °C
As of 10:53 PM on Sunday 23 Nov 2014 (Local Time) from KRME Reporting Station
Clear Clear  
Wind Chill: 44°   Ceiling: Unl
Heat Index: 48°   Visibility: 10mi
Dew Point: 36°   Wind: 9mph
Humidity: 63%   Direction: 100°E
Pressure: 29.91"   Gusts: NA
Location:  43.4607°N, 74.933°W
Report Text: KRME 240353Z AUTO 10008KT 10SM CLR 09/02 A2991 RMK AO2 SLP130 T00890022
Loading
Personal Weather Stations






























Interactive Weather Map New forecast layout! Learn more

10-Day Weather Forecast

Advertisements
Track Severe Weather on mobile